Time;durP1;ratioP1;P1;durP2;ratioP2;P2;SDS_P1;SDS_P2;PMS_P1;PMS_P2;Temp;Humidity;BMP_temperature;BMP_pressure;BME280_temperature;BME280_humidity;BME280_pressure;Samples;Min_cycle;Max_cycle;Signal;HPM_P1;HPM_P2
2021/01/23 00:00:07;;;;;;;9.32;8.07;;;;;;;2.37;95.73;93288.97;1032103;28;20293;-76
2021/01/23 00:00:38;;;;;;;11.40;8.65;;;;;;;2.38;95.71;93287.16;1023875;29;20275;-72
2021/01/23 00:01:13;;;;;;;11.00;9.07;;;;;;;2.26;96.09;93292.03;1020162;29;20351;-74
2021/01/23 00:01:46;;;;;;;10.43;8.65;;;;;;;2.21;96.15;93298.13;1012839;29;20124;-76
2021/01/23 00:02:17;;;;;;;10.05;8.23;;;;;;;2.13;96.42;93299.56;1014401;29;20276;-75
2021/01/23 00:02:47;;;;;;;10.55;8.73;;;;;;;2.17;96.58;93295.31;1020996;29;20271;-76
2021/01/23 00:03:22;;;;;;;9.48;8.48;;;;;;;2.24;96.30;93299.38;1020621;29;20480;-75
2021/01/23 00:03:56;;;;;;;9.82;8.50;;;;;;;2.29;96.21;93300.06;1019842;29;20039;-76
2021/01/23 00:04:28;;;;;;;10.43;9.00;;;;;;;2.28;96.34;93295.13;1017634;29;20371;-75
2021/01/23 00:04:58;;;;;;;10.65;8.98;;;;;;;2.30;96.05;93287.78;1016189;29;20260;-74
2021/01/23 00:05:29;;;;;;;11.40;9.13;;;;;;;2.31;96.29;93284.91;1019093;28;20253;-76
2021/01/23 00:06:00;;;;;;;9.50;8.55;;;;;;;2.31;96.28;93278.91;1024476;28;20028;-77
2021/01/23 00:06:30;;;;;;;11.68;9.73;;;;;;;2.27;96.22;93281.31;1028350;28;20023;-73
2021/01/23 00:07:02;;;;;;;11.55;9.68;;;;;;;2.26;96.21;93279.78;1032362;28;20010;-76
2021/01/23 00:07:32;;;;;;;10.40;9.40;;;;;;;2.26;96.33;93277.19;1032279;28;20142;-76
2021/01/23 00:08:03;;;;;;;10.40;9.30;;;;;;;2.25;96.19;93280.84;1032116;28;20670;-75
2021/01/23 00:08:33;;;;;;;13.25;9.50;;;;;;;2.24;96.43;93286.34;1027852;28;20030;-76
2021/01/23 00:09:04;;;;;;;12.27;10.45;;;;;;;2.21;96.21;93276.50;1019808;29;20050;-75
2021/01/23 00:09:34;;;;;;;12.13;9.63;;;;;;;2.11;96.25;93280.81;1019673;29;20027;-76
2021/01/23 00:10:06;;;;;;;10.85;8.73;;;;;;;2.15;96.65;93276.56;1020355;28;20023;-75
2021/01/23 00:10:38;;;;;;;12.80;9.82;;;;;;;2.10;96.36;93275.88;1028842;28;20045;-76
2021/01/23 00:11:08;;;;;;;11.43;10.20;;;;;;;2.10;96.55;93278.47;1036694;28;20277;-74
2021/01/23 00:11:39;;;;;;;12.13;9.35;;;;;;;2.12;96.55;93281.56;1027447;28;20274;-76
2021/01/23 00:12:09;;;;;;;10.25;8.95;;;;;;;2.15;96.51;93278.41;1027933;28;20592;-76
2021/01/23 00:12:40;;;;;;;12.70;9.85;;;;;;;2.15;96.33;93281.00;1024059;29;20031;-75
2021/01/23 00:13:11;;;;;;;11.15;9.95;;;;;;;2.12;96.09;93284.97;1023985;28;20095;-76
2021/01/23 00:13:42;;;;;;;13.73;10.52;;;;;;;2.06;96.45;93280.91;1023938;29;20362;-75
2021/01/23 00:14:15;;;;;;;13.38;10.45;;;;;;;2.10;96.44;93286.31;1024472;28;20024;-76
2021/01/23 00:14:48;;;;;;;12.25;10.13;;;;;;;2.06;96.91;93290.53;1028175;28;20035;-77
2021/01/23 00:15:19;;;;;;;12.73;10.25;;;;;;;2.04;96.83;93290.06;1029053;28;20269;-74
2021/01/23 00:15:50;;;;;;;10.88;9.77;;;;;;;2.05;96.82;93289.00;1031506;28;20340;-75
2021/01/23 00:16:21;;;;;;;11.00;9.88;;;;;;;2.08;96.88;93304.06;1032125;28;20328;-76
2021/01/23 00:16:51;;;;;;;12.65;10.30;;;;;;;2.09;96.85;93295.97;1032193;28;20010;-75
2021/01/23 00:17:23;;;;;;;11.57;10.07;;;;;;;2.04;97.21;93308.31;1032156;28;20065;-75
2021/01/23 00:17:54;;;;;;;12.55;10.32;;;;;;;1.99;97.30;93311.78;1032590;28;20023;-76
2021/01/23 00:18:28;;;;;;;12.43;10.13;;;;;;;1.98;97.50;93313.63;1028267;28;20631;-76
2021/01/23 00:19:01;;;;;;;13.90;10.38;;;;;;;1.97;97.57;93322.50;1020095;29;20700;-77
2021/01/23 00:19:32;;;;;;;12.05;9.50;;;;;;;1.94;97.74;93317.88;1019907;29;20371;-74
2021/01/23 00:20:06;;;;;;;12.23;10.20;;;;;;;1.95;98.14;93316.03;1020800;29;20267;-75
2021/01/23 00:20:36;;;;;;;11.52;9.85;;;;;;;1.93;98.06;93312.94;1022125;28;20493;-76
2021/01/23 00:21:07;;;;;;;15.48;10.50;;;;;;;1.95;98.08;93310.81;1024352;28;20286;-76
2021/01/23 00:21:37;;;;;;;12.10;10.90;;;;;;;1.91;98.27;93308.00;1020631;28;20028;-72
2021/01/23 00:22:08;;;;;;;12.30;10.38;;;;;;;1.94;98.45;93309.25;1020969;29;20167;-73
2021/01/23 00:22:39;;;;;;;15.43;11.50;;;;;;;1.94;98.42;93317.06;1021012;29;20030;-75
2021/01/23 00:23:10;;;;;;;12.93;10.85;;;;;;;1.92;98.77;93311.38;1025047;28;20807;-75
2021/01/23 00:23:41;;;;;;;13.27;10.85;;;;;;;1.95;98.34;93302.97;1025176;28;20081;-76
2021/01/23 00:24:12;;;;;;;13.13;10.85;;;;;;;1.96;98.61;93318.34;1025507;28;20023;-75
2021/01/23 00:24:43;;;;;;;12.52;11.13;;;;;;;1.91;98.82;93321.03;1028402;28;20659;-75
2021/01/23 00:25:13;;;;;;;13.60;11.95;;;;;;;1.90;98.75;93331.72;1029506;28;20251;-78
2021/01/23 00:25:46;;;;;;;15.68;11.75;;;;;;;1.90;99.00;93331.72;1033088;28;20022;-77
2021/01/23 00:26:16;;;;;;;14.77;12.52;;;;;;;1.85;99.20;93337.81;1028945;28;20035;-74
2021/01/23 00:26:46;;;;;;;13.43;12.00;;;;;;;1.86;99.19;93341.19;1032678;28;20324;-77
2021/01/23 00:27:17;;;;;;;15.43;13.60;;;;;;;1.85;99.12;93339.66;1032949;28;20023;-75
2021/01/23 00:27:50;;;;;;;14.75;11.90;;;;;;;1.85;99.50;93343.03;1033173;28;20090;-76
2021/01/23 00:28:21;;;;;;;14.18;12.55;;;;;;;1.83;99.04;93333.94;1032936;28;20026;-74
2021/01/23 00:28:51;;;;;;;16.20;14.10;;;;;;;1.86;99.51;93336.75;1028725;28;20269;-73
2021/01/23 00:29:22;;;;;;;16.70;14.10;;;;;;;1.85;99.27;93337.81;1028642;28;20122;-76
2021/01/23 00:29:53;;;;;;;16.10;14.13;;;;;;;1.78;99.54;93330.34;1024267;28;20023;-73
2021/01/23 00:30:24;;;;;;;18.05;15.18;;;;;;;1.86;99.46;93325.53;1025045;29;20278;-76
2021/01/23 00:30:54;;;;;;;16.25;14.30;;;;;;;1.88;99.15;93333.84;1021081;29;20038;-77
2021/01/23 00:31:26;;;;;;;16.40;14.48;;;;;;;1.84;99.36;93332.88;1020917;29;20689;-75
2021/01/23 00:31:57;;;;;;;17.80;14.60;;;;;;;1.85;98.90;93348.25;1024499;29;20042;-77
2021/01/23 00:32:32;;;;;;;16.75;14.18;;;;;;;1.89;99.12;93343.25;1025691;28;20620;-76
2021/01/23 00:33:04;;;;;;;16.45;14.05;;;;;;;1.90;98.97;93347.38;1030246;28;20471;-75
2021/01/23 00:33:35;;;;;;;17.52;14.98;;;;;;;1.90;98.97;93342.97;1025820;28;20271;-74
2021/01/23 00:34:10;;;;;;;15.95;14.30;;;;;;;1.90;99.17;93352.59;1025089;29;20275;-77
2021/01/23 00:34:44;;;;;;;16.75;14.32;;;;;;;1.89;99.28;93354.44;1017198;29;20268;-75
2021/01/23 00:35:15;;;;;;;18.25;14.73;;;;;;;1.86;99.25;93357.59;1017789;29;20355;-76
2021/01/23 00:35:48;;;;;;;16.50;14.75;;;;;;;1.85;99.67;93357.91;1022044;29;20314;-75
2021/01/23 00:36:18;;;;;;;20.90;15.52;;;;;;;1.87;99.59;93359.16;1022369;28;20267;-73
2021/01/23 00:36:50;;;;;;;16.58;14.88;;;;;;;1.79;99.61;93357.97;1029243;28;20334;-78
2021/01/23 00:37:24;;;;;;;18.13;14.75;;;;;;;1.79;99.69;93357.19;1029135;28;20029;-76
2021/01/23 00:37:54;;;;;;;18.20;15.18;;;;;;;1.78;99.87;93360.84;1025390;28;20259;-75
2021/01/23 00:38:25;;;;;;;18.77;15.32;;;;;;;1.80;99.66;93366.56;1024819;29;20636;-76
2021/01/23 00:38:55;;;;;;;16.45;13.90;;;;;;;1.79;98.97;93365.78;1025584;28;20012;-77
2021/01/23 00:39:28;;;;;;;18.33;14.07;;;;;;;1.75;98.89;93369.25;1024887;28;20054;-76
2021/01/23 00:39:59;;;;;;;16.73;13.98;;;;;;;1.75;98.96;93371.84;1016772;29;20028;-77
2021/01/23 00:40:30;;;;;;;15.75;13.77;;;;;;;1.71;99.16;93373.47;1012750;29;20618;-74
2021/01/23 00:41:01;;;;;;;18.75;14.32;;;;;;;1.76;99.06;93379.41;1016842;29;20032;-75
2021/01/23 00:41:32;;;;;;;16.98;14.13;;;;;;;1.75;99.20;93377.06;1017270;29;20020;-76
2021/01/23 00:42:02;;;;;;;16.40;13.93;;;;;;;1.77;99.21;93369.75;1019659;29;20290;-76
2021/01/23 00:42:33;;;;;;;15.18;13.60;;;;;;;1.77;99.32;93370.50;1020496;29;20015;-75
2021/01/23 00:43:03;;;;;;;16.35;14.57;;;;;;;1.77;98.94;93372.34;1020625;29;20401;-75
2021/01/23 00:43:34;;;;;;;16.67;13.88;;;;;;;1.77;99.24;93372.34;1020805;28;20016;-76
2021/01/23 00:44:07;;;;;;;15.40;13.18;;;;;;;1.76;98.91;93366.38;1032975;28;20482;-77
2021/01/23 00:44:41;;;;;;;17.52;14.48;;;;;;;1.74;99.01;93372.91;1036540;28;20034;-76
2021/01/23 00:45:12;;;;;;;15.95;14.18;;;;;;;1.73;99.32;93361.69;1036788;28;20770;-75
2021/01/23 00:45:42;;;;;;;16.58;13.43;;;;;;;1.71;99.09;93376.84;1028294;28;20831;-76
2021/01/23 00:46:13;;;;;;;15.75;14.05;;;;;;;1.76;99.36;93376.78;1029785;28;20277;-77
2021/01/23 00:46:45;;;;;;;15.20;13.65;;;;;;;1.78;99.36;93382.50;1032907;28;20106;-75
2021/01/23 00:47:15;;;;;;;15.77;13.68;;;;;;;1.75;99.06;93383.06;1029317;28;20105;-77
2021/01/23 00:47:46;;;;;;;16.38;14.18;;;;;;;1.74;99.10;93378.13;1036982;28;20249;-74
2021/01/23 00:48:16;;;;;;;15.70;14.00;;;;;;;1.76;98.89;93379.41;1037150;28;20068;-76
2021/01/23 00:48:49;;;;;;;17.13;14.18;;;;;;;1.74;99.06;93375.50;1025183;28;20110;-76
2021/01/23 00:49:19;;;;;;;15.57;13.55;;;;;;;1.75;98.96;93379.69;1024388;29;20414;-75
2021/01/23 00:49:50;;;;;;;14.68;13.10;;;;;;;1.77;98.94;93388.00;1020058;29;20267;-75
2021/01/23 00:50:20;;;;;;;18.10;14.40;;;;;;;1.76;98.59;93384.63;1021618;28;20080;-76
2021/01/23 00:50:53;;;;;;;15.23;13.43;;;;;;;1.76;98.69;93379.41;1029254;28;20022;-76
2021/01/23 00:51:25;;;;;;;16.55;13.95;;;;;;;1.77;98.58;93380.94;1033065;28;20113;-75
2021/01/23 00:51:58;;;;;;;16.45;13.45;;;;;;;1.79;98.55;93391.84;1032786;28;20253;-75
2021/01/23 00:52:29;;;;;;;15.25;13.40;;;;;;;1.75;98.83;93375.22;1032114;28;20064;-76
2021/01/23 00:52:59;;;;;;;14.73;12.93;;;;;;;1.75;98.65;93380.44;1034138;28;20257;-75
2021/01/23 00:53:30;;;;;;;17.20;13.80;;;;;;;1.78;98.60;93384.31;1037230;28;20383;-74
2021/01/23 00:54:00;;;;;;;15.23;13.63;;;;;;;1.77;98.63;93388.75;1040915;28;20083;-73
2021/01/23 00:54:31;;;;;;;19.05;14.52;;;;;;;1.74;98.76;93389.31;1041184;28;20104;-74
2021/01/23 00:55:02;;;;;;;16.08;13.05;;;;;;;1.76;98.69;93383.81;1041264;28;20018;-76
2021/01/23 00:55:34;;;;;;;16.88;14.65;;;;;;;1.75;99.10;93387.50;1032871;28;20463;-74
2021/01/23 00:56:04;;;;;;;15.80;13.73;;;;;;;1.70;98.58;93377.13;1028546;28;20318;-76
2021/01/23 00:56:35;;;;;;;16.50;14.23;;;;;;;1.75;98.86;93384.91;1020626;29;20016;-75
2021/01/23 00:57:05;;;;;;;15.55;12.73;;;;;;;1.74;98.74;93393.75;1020848;28;20020;-74
2021/01/23 00:57:36;;;;;;;18.08;14.48;;;;;;;1.72;98.83;93386.22;1024654;28;20019;-72
2021/01/23 00:58:07;;;;;;;15.50;13.57;;;;;;;1.74;98.98;93386.69;1028717;28;20456;-73
2021/01/23 00:58:38;;;;;;;16.13;13.32;;;;;;;1.76;98.92;93387.22;1036577;28;20041;-76
2021/01/23 00:59:08;;;;;;;16.48;14.38;;;;;;;1.72;98.97;93383.59;1032459;28;20455;-76
2021/01/23 00:59:40;;;;;;;15.30;13.02;;;;;;;1.71;98.89;93389.88;1032387;28;20249;-76
2021/01/23 01:00:12;;;;;;;15.73;14.13;;;;;;;1.74;98.80;93381.50;1028721;28;20110;-76
2021/01/23 01:00:43;;;;;;;15.82;13.77;;;;;;;1.74;98.94;93386.69;1028856;28;20258;-76
2021/01/23 01:01:14;;;;;;;17.70;14.45;;;;;;;1.70;99.15;93380.50;1028992;28;20904;-74
2021/01/23 01:01:45;;;;;;;14.77;13.25;;;;;;;1.67;98.91;93394.13;1024910;28;20492;-75
2021/01/23 01:02:17;;;;;;;14.98;13.30;;;;;;;1.71;99.22;93389.88;1025074;29;20247;-75
2021/01/23 01:02:47;;;;;;;15.10;13.38;;;;;;;1.72;99.26;93391.44;1021100;29;20122;-75
2021/01/23 01:03:18;;;;;;;17.70;13.65;;;;;;;1.74;99.07;93399.75;1016964;29;20745;-76
2021/01/23 01:03:48;;;;;;;16.35;13.75;;;;;;;1.75;99.05;93397.94;1020699;29;20400;-73
2021/01/23 01:04:19;;;;;;;15.85;13.05;;;;;;;1.76;99.06;93408.09;1016728;29;20020;-74
2021/01/23 01:04:51;;;;;;;15.30;13.73;;;;;;;1.76;98.78;93400.25;1021251;28;20071;-76
2021/01/23 01:05:21;;;;;;;16.10;13.15;;;;;;;1.76;99.06;93402.06;1024829;29;20022;-76
2021/01/23 01:05:52;;;;;;;15.45;13.57;;;;;;;1.77;98.97;93401.03;1018639;28;20272;-74
2021/01/23 01:06:22;;;;;;;20.50;14.73;;;;;;;1.78;99.12;93402.56;1024376;29;20066;-74
2021/01/23 01:06:52;;;;;;;17.40;13.80;;;;;;;1.79;99.05;93401.53;1024876;28;20030;-75
2021/01/23 01:07:23;;;;;;;15.52;13.73;;;;;;;1.81;99.31;93403.84;1028499;28;20085;-75
2021/01/23 01:07:53;;;;;;;18.13;14.45;;;;;;;1.76;99.48;93413.28;1032499;28;20372;-76
2021/01/23 01:08:24;;;;;;;19.25;15.05;;;;;;;1.81;99.42;93411.69;1032632;28;20019;-75
2021/01/23 01:08:54;;;;;;;15.95;12.80;;;;;;;1.79;99.43;93417.94;1028682;28;20023;-74
2021/01/23 01:09:25;;;;;;;21.40;14.85;;;;;;;1.83;99.43;93420.00;1032443;28;20025;-74
2021/01/23 01:09:55;;;;;;;18.40;14.32;;;;;;;1.81;99.35;93419.50;1028117;28;20050;-75
2021/01/23 01:10:27;;;;;;;18.08;14.95;;;;;;;1.84;99.52;93418.91;1028905;28;20062;-74
2021/01/23 01:10:57;;;;;;;18.60;14.85;;;;;;;1.79;99.52;93412.72;1036741;28;20049;-75
2021/01/23 01:11:29;;;;;;;20.60;15.50;;;;;;;1.84;99.50;93418.91;1037077;28;20261;-74
2021/01/23 01:12:00;;;;;;;17.98;16.05;;;;;;;1.83;99.46;93418.16;1041071;28;20339;-77
2021/01/23 01:12:32;;;;;;;16.75;14.60;;;;;;;1.84;99.40;93417.09;1040886;28;20033;-75
2021/01/23 01:13:02;;;;;;;16.67;14.98;;;;;;;1.84;99.55;93411.88;1041379;28;20029;-74
2021/01/23 01:13:33;;;;;;;17.30;14.80;;;;;;;1.82;99.38;93421.81;1037033;28;20284;-76
2021/01/23 01:14:03;;;;;;;18.48;14.90;;;;;;;1.85;99.46;93425.69;1032839;28;20026;-75
2021/01/23 01:14:34;;;;;;;18.08;15.07;;;;;;;1.84;99.50;93424.91;1032318;28;20781;-76
2021/01/23 01:15:10;;;;;;;17.70;15.05;;;;;;;1.83;99.39;93423.38;1033222;28;20062;-76
2021/01/23 01:15:41;;;;;;;16.48;13.85;;;;;;;1.88;99.43;93425.13;1037823;28;20268;-74
2021/01/23 01:16:11;;;;;;;20.35;15.13;;;;;;;1.87;99.42;93418.38;1036585;28;20295;-77
2021/01/23 01:16:44;;;;;;;20.00;15.55;;;;;;;1.86;99.46;93429.84;1036639;28;20277;-76
2021/01/23 01:17:15;;;;;;;17.70;15.15;;;;;;;1.77;99.21;93419.28;1036504;28;20344;-77
2021/01/23 01:17:47;;;;;;;17.40;15.55;;;;;;;1.81;99.65;93435.91;1025027;28;20806;-75
2021/01/23 01:18:18;;;;;;;17.60;15.73;;;;;;;1.84;99.87;93432.72;1024742;28;20267;-73
2021/01/23 01:18:48;;;;;;;19.73;16.98;;;;;;;1.86;99.95;93432.44;1025096;29;20263;-75
2021/01/23 01:19:20;;;;;;;17.83;15.93;;;;;;;1.85;99.81;93426.47;1022683;28;20263;-73
2021/01/23 01:19:50;;;;;;;20.25;15.88;;;;;;;1.86;100.00;93438.44;1024508;29;20039;-76
2021/01/23 01:20:21;;;;;;;20.10;15.77;;;;;;;1.87;99.95;93434.03;1024401;29;20275;-75
2021/01/23 01:20:52;;;;;;;18.98;15.98;;;;;;;1.89;99.71;93434.50;1016824;29;20028;-75
2021/01/23 01:21:22;;;;;;;19.00;16.30;;;;;;;1.90;99.86;93434.25;1024500;29;20258;-74
2021/01/23 01:21:53;;;;;;;19.38;15.93;;;;;;;1.88;99.69;93446.00;1020831;28;20457;-75
2021/01/23 01:22:23;;;;;;;17.50;15.35;;;;;;;1.88;99.58;93441.53;1028552;28;20027;-76
2021/01/23 01:22:54;;;;;;;18.50;16.42;;;;;;;1.89;99.89;93444.94;1032778;28;20391;-75
2021/01/23 01:23:25;;;;;;;18.80;15.27;;;;;;;1.90;99.96;93443.88;1032915;28;20034;-75
2021/01/23 01:23:56;;;;;;;18.73;14.80;;;;;;;1.91;99.72;93448.81;1032687;28;20261;-73
2021/01/23 01:24:26;;;;;;;19.42;16.35;;;;;;;1.93;100.00;93451.91;1032533;28;20022;-74
2021/01/23 01:24:57;;;;;;;19.25;15.93;;;;;;;1.92;99.79;93457.41;1032394;28;20029;-76
2021/01/23 01:25:27;;;;;;;17.23;14.52;;;;;;;1.91;100.00;93442.84;1032864;28;20030;-77
2021/01/23 01:25:58;;;;;;;18.50;14.80;;;;;;;1.90;99.88;93454.31;1033014;28;20019;-74
2021/01/23 01:26:28;;;;;;;17.58;14.95;;;;;;;1.93;100.00;93456.38;1032817;28;20050;-74
2021/01/23 01:26:59;;;;;;;19.17;16.70;;;;;;;1.91;99.89;93456.63;1028571;28;20404;-73
2021/01/23 01:27:29;;;;;;;19.02;15.75;;;;;;;1.88;100.00;93454.56;1032575;28;20034;-74
2021/01/23 01:28:00;;;;;;;18.80;16.40;;;;;;;1.89;100.00;93447.56;1033001;28;20034;-77
2021/01/23 01:28:30;;;;;;;18.42;15.32;;;;;;;1.88;100.00;93451.97;1029108;28;20049;-76
2021/01/23 01:29:03;;;;;;;20.75;17.05;;;;;;;1.87;100.00;93452.28;1033139;28;20073;-75
2021/01/23 01:29:34;;;;;;;19.20;16.17;;;;;;;1.88;100.00;93462.41;1023904;29;20055;-76
2021/01/23 01:30:05;;;;;;;19.20;16.45;;;;;;;1.90;100.00;93462.13;1016912;29;20315;-73
2021/01/23 01:30:36;;;;;;;20.60;16.95;;;;;;;1.88;100.00;93453.81;1016983;29;20095;-77
2021/01/23 01:31:10;;;;;;;19.58;17.15;;;;;;;1.88;100.00;93462.41;1018035;29;20059;-75
2021/01/23 01:31:40;;;;;;;18.27;16.38;;;;;;;1.88;100.00;93456.41;1021491;29;20319;-75
2021/01/23 01:32:12;;;;;;;18.42;16.50;;;;;;;1.89;100.00;93460.59;1021360;29;20267;-76
2021/01/23 01:32:42;;;;;;;19.50;16.95;;;;;;;1.91;100.00;93463.69;1016465;29;20032;-77
2021/01/23 01:33:14;;;;;;;22.70;18.30;;;;;;;1.87;100.00;93457.50;1017159;29;20295;-75
2021/01/23 01:33:45;;;;;;;19.15;16.50;;;;;;;1.90;100.00;93460.31;1016641;29;20032;-74
2021/01/23 01:34:17;;;;;;;21.25;18.13;;;;;;;1.90;100.00;93470.75;1013379;29;20261;-75
2021/01/23 01:34:48;;;;;;;21.75;17.50;;;;;;;1.90;100.00;93462.94;1013834;29;20036;-73
2021/01/23 01:35:19;;;;;;;19.88;17.20;;;;;;;1.92;100.00;93475.66;1013625;29;20283;-75
2021/01/23 01:35:49;;;;;;;20.98;16.90;;;;;;;1.91;100.00;93466.31;1020933;29;20350;-73
2021/01/23 01:36:23;;;;;;;20.77;18.55;;;;;;;1.92;100.00;93473.06;1012549;29;20549;-74
2021/01/23 01:36:56;;;;;;;23.80;18.60;;;;;;;1.94;100.00;93478.75;1012559;29;20256;-72
2021/01/23 01:37:26;;;;;;;21.85;18.23;;;;;;;1.98;100.00;93482.38;1014804;29;20036;-72
2021/01/23 01:37:57;;;;;;;21.58;19.23;;;;;;;1.96;100.00;93474.84;1018891;28;20688;-74
2021/01/23 01:38:27;;;;;;;22.83;19.50;;;;;;;1.96;100.00;93481.88;1024241;29;20480;-73
2021/01/23 01:38:58;;;;;;;21.25;18.73;;;;;;;1.98;100.00;93477.16;1024228;29;20370;-72
2021/01/23 01:39:29;;;;;;;23.45;19.27;;;;;;;1.98;100.00;93477.94;1020299;29;20031;-71
2021/01/23 01:40:01;;;;;;;24.50;20.30;;;;;;;2.03;100.00;93478.94;1020028;29;20024;-72
2021/01/23 01:40:31;;;;;;;22.75;19.75;;;;;;;2.03;100.00;93484.16;1020290;29;20663;-72
2021/01/23 01:41:01;;;;;;;22.80;20.30;;;;;;;2.03;100.00;93478.94;1019948;29;20287;-72
2021/01/23 01:41:32;;;;;;;24.77;19.27;;;;;;;2.00;100.00;93472.41;1024520;28;20508;-71
2021/01/23 01:42:07;;;;;;;21.83;19.48;;;;;;;2.04;100.00;93481.25;1024497;28;20028;-71
2021/01/23 01:42:38;;;;;;;23.42;20.00;;;;;;;2.06;100.00;93486.97;1032362;28;20030;-71
2021/01/23 01:43:08;;;;;;;22.48;19.15;;;;;;;2.08;100.00;93484.06;1024197;29;20287;-71
2021/01/23 01:43:39;;;;;;;24.30;21.73;;;;;;;2.07;100.00;93485.91;1021124;29;20408;-74
2021/01/23 01:44:10;;;;;;;24.88;19.70;;;;;;;2.10;100.00;93489.78;1016424;29;20040;-72
2021/01/23 01:44:40;;;;;;;25.10;21.63;;;;;;;2.09;100.00;93493.47;1016305;29;20055;-71
2021/01/23 01:45:11;;;;;;;25.15;21.42;;;;;;;2.12;100.00;93503.31;1024352;28;20019;-73
2021/01/23 01:45:42;;;;;;;27.38;21.60;;;;;;;2.10;100.00;93495.78;1028831;28;20527;-71
2021/01/23 01:46:13;;;;;;;26.45;22.95;;;;;;;2.12;100.00;93495.50;1036545;28;20260;-72
2021/01/23 01:46:44;;;;;;;25.48;22.65;;;;;;;2.13;100.00;93500.44;1032290;28;20022;-72
2021/01/23 01:47:14;;;;;;;24.05;21.25;;;;;;;2.14;100.00;93495.97;1031463;28;20763;-72
2021/01/23 01:47:45;;;;;;;25.83;21.83;;;;;;;2.15;100.00;93502.75;1032262;28;20030;-71
2021/01/23 01:48:16;;;;;;;24.88;21.88;;;;;;;2.19;100.00;93506.38;1028293;28;20075;-71
2021/01/23 01:48:48;;;;;;;26.55;23.65;;;;;;;2.21;100.00;93501.63;1024171;28;20685;-72
2021/01/23 01:49:19;;;;;;;29.88;22.65;;;;;;;2.22;100.00;93500.59;1020444;29;20024;-72
2021/01/23 01:49:51;;;;;;;26.90;23.33;;;;;;;2.25;100.00;93507.84;1021158;28;20255;-71
2021/01/23 01:50:24;;;;;;;26.88;22.85;;;;;;;2.26;100.00;93503.38;1024253;29;20457;-71
2021/01/23 01:50:54;;;;;;;28.30;24.33;;;;;;;2.26;100.00;93500.78;1021150;29;20656;-72
2021/01/23 01:51:26;;;;;;;27.13;24.15;;;;;;;2.28;100.00;93506.50;1016367;29;20283;-73
2021/01/23 01:51:56;;;;;;;26.60;23.50;;;;;;;2.28;100.00;93509.91;1016967;29;20032;-72
2021/01/23 01:52:27;;;;;;;28.70;25.60;;;;;;;2.28;100.00;93498.66;1016884;29;20264;-71
2021/01/23 01:52:57;;;;;;;30.60;23.77;;;;;;;2.27;100.00;93507.56;1020553;28;20035;-72
2021/01/23 01:53:28;;;;;;;29.00;24.15;;;;;;;2.28;100.00;93509.91;1028323;28;20034;-72
2021/01/23 01:54:01;;;;;;;27.67;24.65;;;;;;;2.32;100.00;93512.69;1016367;29;20123;-72
2021/01/23 01:54:31;;;;;;;27.98;24.80;;;;;;;2.32;100.00;93516.09;1020621;29;20268;-71
2021/01/23 01:55:02;;;;;;;27.38;24.48;;;;;;;2.33;100.00;93520.25;1020024;29;20741;-72
2021/01/23 01:55:34;;;;;;;28.15;24.23;;;;;;;2.33;100.00;93515.03;1017839;28;20043;-72
2021/01/23 01:56:06;;;;;;;28.95;23.90;;;;;;;2.32;100.00;93526.53;1028143;28;20293;-71
2021/01/23 01:56:36;;;;;;;30.23;24.02;;;;;;;2.32;100.00;93512.69;1020803;29;20828;-72
2021/01/23 01:57:07;;;;;;;28.10;23.77;;;;;;;2.36;100.00;93519.69;1020548;29;20343;-71
2021/01/23 01:57:40;;;;;;;29.90;24.75;;;;;;;2.39;100.00;93518.34;1020199;29;20091;-72
2021/01/23 01:58:10;;;;;;;29.70;25.10;;;;;;;2.37;100.00;93516.03;1017191;29;20401;-74
2021/01/23 01:58:41;;;;;;;27.17;24.27;;;;;;;2.42;100.00;93530.06;1024251;28;20278;-71
2021/01/23 01:59:11;;;;;;;27.05;23.70;;;;;;;2.41;100.00;93528.53;1027568;28;20038;-72
2021/01/23 01:59:42;;;;;;;26.98;24.08;;;;;;;2.43;100.00;93526.41;1032091;28;20030;-74
2021/01/23 02:00:13;;;;;;;27.63;24.63;;;;;;;2.43;100.00;93523.78;1028183;28;20113;-72
2021/01/23 02:00:44;;;;;;;27.52;24.17;;;;;;;2.41;100.00;93528.53;1024302;29;20274;-74
2021/01/23 02:01:14;;;;;;;27.05;22.75;;;;;;;2.43;100.00;93527.16;1020285;29;20079;-73
2021/01/23 02:01:45;;;;;;;25.63;22.42;;;;;;;2.44;100.00;93522.72;1020528;28;20112;-73
2021/01/23 02:02:27;;;;;;;27.65;23.13;;;;;;;2.45;100.00;93527.66;1024340;28;20038;-71
2021/01/23 02:03:00;;;;;;;27.27;24.33;;;;;;;2.47;100.00;93543.06;1017899;29;20788;-72
2021/01/23 02:04:08;;;;;;;25.63;22.88;;;;;;;2.46;100.00;93538.88;1019997;29;20399;-72
2021/01/23 02:04:44;;;;;;;27.48;21.42;;;;;;;2.46;100.00;93538.88;1024699;28;20356;-72
2021/01/23 02:05:43;;;;;;;25.52;21.77;;;;;;;2.51;100.00;93550.03;1032254;28;20289;-73
2021/01/23 02:06:28;;;;;;;26.48;21.73;;;;;;;2.49;100.00;93553.97;1028657;28;20854;-72
2021/01/23 02:07:15;;;;;;;26.63;21.90;;;;;;;2.49;100.00;93553.97;1031289;28;20045;-73
2021/01/23 02:08:08;;;;;;;28.92;21.63;;;;;;;2.47;100.00;93561.31;1031998;28;20133;-72
2021/01/23 02:09:01;;;;;;;24.20;20.85;;;;;;;2.47;100.00;93558.72;1028141;28;20790;-71
2021/01/23 02:09:53;;;;;;;25.23;20.13;;;;;;;2.46;100.00;93555.34;1020015;29;20286;-72
2021/01/23 02:10:34;;;;;;;25.10;19.08;;;;;;;2.45;100.00;93556.38;1021954;29;20682;-71
2021/01/23 02:11:11;;;;;;;25.30;19.85;;;;;;;2.47;100.00;93572.53;1021382;29;20271;-73
2021/01/23 02:11:51;;;;;;;23.67;19.88;;;;;;;2.41;100.00;93555.38;1020124;29;20279;-72
2021/01/23 02:12:22;;;;;;;25.15;20.45;;;;;;;2.47;100.00;93566.53;1023480;29;20266;-74
2021/01/23 02:13:17;;;;;;;24.67;20.30;;;;;;;2.45;100.00;93579.88;1023049;29;20267;-71
2021/01/23 02:13:53;;;;;;;24.58;19.55;;;;;;;2.44;100.00;93574.91;1028132;28;20309;-70
2021/01/23 02:14:35;;;;;;;23.20;18.83;;;;;;;2.46;100.00;93570.19;1027796;28;20301;-71
2021/01/23 02:15:11;;;;;;;23.83;19.25;;;;;;;2.45;100.00;93577.25;1032218;28;20297;-72
2021/01/23 02:15:44;;;;;;;24.38;19.23;;;;;;;2.46;100.00;93581.44;1028099;28;20270;-72
2021/01/23 02:16:16;;;;;;;24.92;19.85;;;;;;;2.46;100.00;93583.25;1021308;29;20271;-72
2021/01/23 02:16:47;;;;;;;24.58;19.80;;;;;;;2.50;100.00;93577.22;1024028;29;20271;-73
2021/01/23 02:17:18;;;;;;;22.48;18.13;;;;;;;2.48;100.00;93578.53;1016236;29;20284;-72
2021/01/23 02:17:57;;;;;;;22.73;19.67;;;;;;;2.45;100.00;93587.69;1016274;29;20607;-72
2021/01/23 02:18:30;;;;;;;22.63;18.25;;;;;;;2.46;100.00;93578.81;1016329;29;20034;-72
2021/01/23 02:19:34;;;;;;;19.50;17.08;;;;;;;2.47;100.00;93593.41;1023762;29;20279;-71
2021/01/23 02:20:08;;;;;;;21.10;15.85;;;;;;;2.42;100.00;93593.50;1020932;29;20709;-72
2021/01/23 02:21:25;;;;;;;19.88;16.65;;;;;;;2.45;100.00;93600.75;1025226;28;20809;-72
2021/01/23 02:22:05;;;;;;;19.05;14.50;;;;;;;2.44;100.00;93596.59;1030536;28;20830;-72
2021/01/23 02:22:38;;;;;;;18.48;15.02;;;;;;;2.44;100.00;93594.00;1020120;29;20360;-73
2021/01/23 02:23:24;;;;;;;17.42;12.85;;;;;;;2.42;100.00;93597.91;1020528;29;20040;-73
2021/01/23 02:23:55;;;;;;;17.60;14.20;;;;;;;2.40;100.00;93598.22;1016210;29;20339;-71
2021/01/23 02:24:28;;;;;;;17.58;14.50;;;;;;;2.42;100.00;93610.97;1021461;29;20264;-72
2021/01/23 02:25:00;;;;;;;19.55;16.05;;;;;;;2.38;100.00;93605.56;1019783;29;20354;-71
2021/01/23 02:25:34;;;;;;;16.70;14.00;;;;;;;2.40;100.00;93611.28;1020125;29;20788;-72
2021/01/23 02:26:37;;;;;;;16.33;13.25;;;;;;;2.37;100.00;93607.38;1012391;29;20269;-72
2021/01/23 02:27:34;;;;;;;16.20;13.38;;;;;;;2.37;100.00;93609.22;1017858;29;20346;-73
2021/01/23 02:28:29;;;;;;;15.88;13.18;;;;;;;2.35;100.00;93624.38;1017392;29;20405;-73
2021/01/23 02:29:05;;;;;;;15.52;12.15;;;;;;;2.34;100.00;93609.78;1020096;29;20322;-72
2021/01/23 02:29:49;;;;;;;11.00;9.80;;;;;;;2.32;100.00;93623.09;1021219;29;20302;-72
2021/01/23 02:30:31;;;;;;;11.40;9.93;;;;;;;2.30;100.00;93614.78;1032122;28;20305;-71
2021/01/23 02:31:09;;;;;;;9.45;8.23;;;;;;;2.29;100.00;93613.22;1032144;28;20611;-71
2021/01/23 02:31:41;;;;;;;10.85;8.70;;;;;;;2.27;100.00;93625.75;1028199;28;20399;-74
2021/01/23 02:32:12;;;;;;;10.23;9.15;;;;;;;2.27;100.00;93632.81;1028127;28;20755;-72